Time;durP1;ratioP1;P1;durP2;ratioP2;P2;SDS_P1;SDS_P2;PMS_P1;PMS_P2;Temp;Humidity;BMP_temperature;BMP_pressure;BME280_temperature;BME280_humidity;BME280_pressure;Samples;Min_cycle;Max_cycle;Signal;HPM_P1;HPM_P2
2021/12/12 00:00:53;;;;;;;32.63;12.80;;;;;;;1.66;87.99;97995.31;4533576;31;20174;-76
2021/12/12 00:03:38;;;;;;;33.42;11.40;;;;;;;1.72;88.13;97985.12;4534087;31;20163;-76
2021/12/12 00:06:20;;;;;;;27.87;11.82;;;;;;;1.92;88.34;98000.22;4534062;31;20493;-76
2021/12/12 00:08:54;;;;;;;26.80;10.68;;;;;;;1.73;88.07;97977.47;4533567;31;20157;-76
2021/12/12 00:11:25;;;;;;;27.90;10.63;;;;;;;2.15;86.87;97990.66;4533810;31;20150;-76
2021/12/12 00:13:56;;;;;;;28.00;10.95;;;;;;;1.69;88.74;97937.63;4533419;31;20130;-76
2021/12/12 00:16:23;;;;;;;27.48;11.23;;;;;;;1.70;88.63;97994.44;4533820;31;20096;-76
2021/12/12 00:18:54;;;;;;;30.92;12.52;;;;;;;1.77;88.14;97988.44;4534558;31;20104;-76
2021/12/12 00:21:23;;;;;;;26.70;11.10;;;;;;;1.91;87.29;97998.50;4521447;31;20143;-76
2021/12/12 00:23:51;;;;;;;28.25;11.27;;;;;;;1.95;85.47;97975.56;4536014;31;20146;-76
2021/12/12 00:26:18;;;;;;;29.08;12.30;;;;;;;1.77;86.24;97979.97;4536019;31;20146;-76
2021/12/12 00:28:45;;;;;;;29.70;11.52;;;;;;;1.02;89.63;97963.59;4521175;31;20120;-76
2021/12/12 00:31:15;;;;;;;29.33;13.23;;;;;;;1.31;89.44;97949.84;4535953;31;20084;-76
2021/12/12 00:33:47;;;;;;;25.42;10.07;;;;;;;0.79;89.18;97953.56;4536018;31;20111;-76
2021/12/12 00:36:17;;;;;;;23.98;10.25;;;;;;;1.47;87.60;97969.19;4521463;31;20147;-76
2021/12/12 00:38:57;;;;;;;29.37;12.52;;;;;;;0.94;90.11;97960.25;4535702;31;20537;-76
2021/12/12 00:41:39;;;;;;;24.73;10.00;;;;;;;1.08;90.07;97977.97;4521513;31;20135;-76
2021/12/12 00:44:06;;;;;;;34.40;10.82;;;;;;;1.39;88.59;97996.41;4521706;31;20147;-76
2021/12/12 00:46:33;;;;;;;27.35;10.40;;;;;;;1.44;88.69;97998.03;4521520;31;20393;-76
2021/12/12 00:49:00;;;;;;;30.08;11.48;;;;;;;1.42;89.99;97987.03;4520825;31;20194;-76
2021/12/12 00:51:35;;;;;;;33.42;11.80;;;;;;;1.30;90.43;97994.75;4535962;31;20117;-76
2021/12/12 00:54:04;;;;;;;27.00;11.00;;;;;;;1.29;89.16;98000.69;4535826;31;20087;-76
2021/12/12 00:56:31;;;;;;;22.02;8.55;;;;;;;1.70;87.06;98004.59;4521100;31;20147;-76
2021/12/12 00:58:59;;;;;;;20.70;8.43;;;;;;;1.69;85.75;98023.28;4535516;31;20138;-76
2021/12/12 01:01:30;;;;;;;22.45;8.30;;;;;;;1.40;86.02;98018.41;4535881;31;20087;-76
2021/12/12 01:04:07;;;;;;;19.55;7.57;;;;;;;1.11;85.79;98027.06;4521100;31;20103;-76
2021/12/12 01:06:34;;;;;;;17.80;7.97;;;;;;;1.66;82.86;98024.16;4535932;31;20146;-75
2021/12/12 01:09:06;;;;;;;18.10;7.10;;;;;;;1.52;81.77;98020.88;4535425;31;20147;-76
2021/12/12 01:11:37;;;;;;;20.75;7.22;;;;;;;1.41;81.94;98027.72;4535494;31;20158;-76
2021/12/12 01:14:07;;;;;;;14.30;6.20;;;;;;;1.08;84.01;98024.53;4521087;31;20096;-76
2021/12/12 01:16:38;;;;;;;17.73;6.35;;;;;;;1.45;81.70;98009.06;4535941;31;20099;-76
2021/12/12 01:19:18;;;;;;;18.85;6.93;;;;;;;1.36;80.31;98026.91;4535377;31;20520;-76
2021/12/12 01:21:51;;;;;;;15.82;6.07;;;;;;;1.07;82.28;98034.72;4535753;31;20135;-76
2021/12/12 01:24:31;;;;;;;20.88;8.15;;;;;;;1.22;81.11;98042.25;4535481;31;20111;-76
2021/12/12 01:27:00;;;;;;;15.48;6.05;;;;;;;0.80;81.51;98035.69;4521386;31;20102;-76
2021/12/12 01:29:27;;;;;;;16.95;6.22;;;;;;;0.56;83.12;98046.78;4535335;31;20087;-77
2021/12/12 01:31:56;;;;;;;15.18;5.40;;;;;;;0.91;81.84;98039.00;4520603;31;20169;-76
2021/12/12 01:34:28;;;;;;;15.77;6.32;;;;;;;0.49;83.51;98060.31;4535501;31;20101;-76
2021/12/12 01:37:34;;;;;;;17.10;6.75;;;;;;;0.84;81.07;98048.34;4535645;31;20504;-76
2021/12/12 01:40:00;;;;;;;19.77;6.75;;;;;;;0.75;80.54;98052.66;4534187;31;20512;-76
2021/12/12 01:42:34;;;;;;;15.88;7.15;;;;;;;0.62;80.72;98063.66;4521210;31;20139;-76
2021/12/12 01:45:17;;;;;;;15.75;5.97;;;;;;;0.55;81.21;98060.31;4535331;31;20130;-76
2021/12/12 01:48:00;;;;;;;15.10;5.70;;;;;;;0.72;80.03;98071.25;4535610;31;20103;-76
2021/12/12 01:50:41;;;;;;;15.68;5.53;;;;;;;0.83;79.61;98077.12;4521160;31;20151;-75
2021/12/12 01:53:11;;;;;;;19.62;6.90;;;;;;;0.82;78.66;98095.78;4535199;31;20075;-76
2021/12/12 01:56:04;;;;;;;15.20;5.82;;;;;;;0.66;78.33;98075.53;4535460;31;20095;-75
2021/12/12 01:58:34;;;;;;;15.43;6.60;;;;;;;0.56;80.07;98069.62;4535210;31;20117;-76
2021/12/12 02:01:10;;;;;;;16.15;5.78;;;;;;;0.84;76.21;98044.97;4520754;31;20083;-76
2021/12/12 02:03:42;;;;;;;12.75;5.95;;;;;;;0.18;80.87;98073.06;4521151;31;20087;-76
2021/12/12 02:06:11;;;;;;;14.23;5.47;;;;;;;0.74;77.28;98077.16;4520725;31;20103;-76
2021/12/12 02:08:39;;;;;;;16.52;6.47;;;;;;;0.82;76.31;98088.16;4520835;31;20163;-75
2021/12/12 02:11:10;;;;;;;17.20;6.85;;;;;;;0.61;77.38;98080.59;4535445;31;20097;-76
2021/12/12 02:13:41;;;;;;;13.18;5.30;;;;;;;0.62;76.81;98089.06;4535145;31;20097;-76
2021/12/12 02:16:09;;;;;;;17.70;7.65;;;;;;;0.27;79.47;98075.59;4535498;31;20441;-76
2021/12/12 02:18:40;;;;;;;16.83;7.47;;;;;;;-0.03;80.57;98060.41;4520592;31;20125;-76
2021/12/12 02:21:28;;;;;;;16.42;6.62;;;;;;;-0.11;80.72;98084.91;4520760;31;20169;-76
2021/12/12 02:35:22;;;;;;;14.25;5.55;;;;;;;0.91;76.15;98106.75;4522693;31;20232;-76
2021/12/12 02:37:54;;;;;;;16.52;5.87;;;;;;;0.32;77.82;98117.87;4535214;31;20134;-75
2021/12/12 02:40:24;;;;;;;12.73;4.82;;;;;;;0.69;77.10;98133.91;4520626;31;20620;-76
2021/12/12 02:42:51;;;;;;;15.50;5.68;;;;;;;0.83;77.44;98119.47;4519184;31;20082;-76
2021/12/12 02:45:20;;;;;;;12.40;4.97;;;;;;;1.00;75.82;98127.06;4535148;31;20103;-76
2021/12/12 02:47:57;;;;;;;15.07;5.57;;;;;;;0.77;76.81;98134.75;4534939;31;20106;-76
2021/12/12 02:50:33;;;;;;;11.77;5.22;;;;;;;0.32;78.99;98126.37;4535105;31;20150;-76
2021/12/12 02:53:06;;;;;;;16.17;5.90;;;;;;;0.43;78.11;98122.12;4535117;31;20098;-76
2021/12/12 02:55:37;;;;;;;14.43;5.00;;;;;;;0.74;78.10;98120.34;4534617;31;20092;-77
2021/12/12 02:58:06;;;;;;;12.25;4.93;;;;;;;1.08;75.34;98110.94;4534869;31;20109;-75
2021/12/12 03:00:39;;;;;;;17.58;5.87;;;;;;;1.02;75.65;98100.78;4520411;31;20096;-76
2021/12/12 03:03:08;;;;;;;18.45;5.97;;;;;;;1.39;74.46;98119.28;4534607;31;20584;-76
2021/12/12 03:05:44;;;;;;;15.13;6.00;;;;;;;1.27;74.62;98124.38;4520606;31;20150;-76
2021/12/12 03:08:12;;;;;;;16.00;5.37;;;;;;;0.49;76.89;98119.56;4534824;31;20091;-76
2021/12/12 03:10:42;;;;;;;17.62;4.90;;;;;;;1.33;74.63;98108.28;4534389;31;20096;-76
2021/12/12 03:13:09;;;;;;;11.93;5.03;;;;;;;1.53;74.03;98101.38;4520388;31;20449;-76
2021/12/12 03:15:39;;;;;;;12.07;4.70;;;;;;;0.90;76.30;98117.78;4520129;31;20166;-76
2021/12/12 03:18:14;;;;;;;12.05;4.20;;;;;;;0.92;76.82;98123.69;4534358;31;20150;-76
2021/12/12 03:20:47;;;;;;;15.18;5.45;;;;;;;0.96;76.82;98122.81;4534725;31;20398;-76
2021/12/12 03:23:19;;;;;;;15.68;4.82;;;;;;;1.53;75.00;98125.97;4534347;31;20158;-76
2021/12/12 03:25:50;;;;;;;16.45;6.68;;;;;;;1.33;75.03;98123.53;4534659;31;20071;-76
2021/12/12 03:28:20;;;;;;;16.40;5.93;;;;;;;1.37;75.43;98110.78;4534611;31;20477;-76
2021/12/12 03:30:51;;;;;;;16.75;5.62;;;;;;;1.32;76.37;98117.59;4534161;31;20117;-76
2021/12/12 03:33:18;;;;;;;13.65;5.12;;;;;;;0.70;77.53;98059.41;4534572;31;20097;-76
2021/12/12 03:35:49;;;;;;;14.15;5.47;;;;;;;1.05;77.18;98036.41;4520134;31;20114;-76
2021/12/12 03:38:16;;;;;;;13.32;5.50;;;;;;;0.83;77.78;98094.91;4533956;31;20425;-76
2021/12/12 03:40:45;;;;;;;13.85;5.82;;;;;;;1.23;76.75;98091.38;4534245;31;20102;-76
2021/12/12 03:43:13;;;;;;;16.87;6.72;;;;;;;1.03;77.17;98099.09;4520052;31;20083;-76
2021/12/12 03:45:42;;;;;;;15.45;7.05;;;;;;;0.74;78.79;98105.09;4533975;31;20634;-76
2021/12/12 03:48:20;;;;;;;14.52;6.37;;;;;;;1.01;77.84;98108.41;4534032;31;20159;-76
2021/12/12 03:50:49;;;;;;;17.98;7.00;;;;;;;0.42;79.45;98082.34;4519854;31;20537;-76
2021/12/12 03:53:16;;;;;;;16.80;5.93;;;;;;;0.58;78.95;98073.00;4534222;31;20105;-76
2021/12/12 03:55:45;;;;;;;14.98;5.93;;;;;;;1.10;76.66;98060.09;4521948;31;20443;-76
2021/12/12 03:58:13;;;;;;;16.02;6.30;;;;;;;0.73;78.50;98113.56;4535809;31;20166;-77
2021/12/12 04:00:50;;;;;;;15.63;5.80;;;;;;;1.14;76.77;98107.50;4521788;31;20104;-76
2021/12/12 04:03:19;;;;;;;17.15;6.28;;;;;;;0.59;77.89;98100.06;4536317;31;20079;-76
2021/12/12 04:05:52;;;;;;;14.00;5.60;;;;;;;0.49;78.60;98096.72;4521496;31;20097;-77
2021/12/12 04:08:25;;;;;;;15.45;4.87;;;;;;;0.97;78.15;98106.75;4536247;31;20122;-76
2021/12/12 04:10:52;;;;;;;16.75;6.45;;;;;;;1.48;75.98;98131.06;4536191;31;20130;-76
2021/12/12 04:13:20;;;;;;;16.48;5.72;;;;;;;0.63;79.78;98124.59;4535799;31;20095;-76
2021/12/12 04:15:51;;;;;;;16.90;6.20;;;;;;;0.90;78.76;98123.69;4536047;31;20138;-76
2021/12/12 04:18:27;;;;;;;17.95;5.80;;;;;;;0.91;78.33;98119.47;4535867;31;20452;-76
2021/12/12 04:20:55;;;;;;;17.90;6.27;;;;;;;0.97;76.78;98088.97;4535960;31;20395;-76
2021/12/12 04:23:25;;;;;;;18.20;5.70;;;;;;;0.68;77.78;98122.06;4536127;31;20127;-76
2021/12/12 04:25:52;;;;;;;14.98;5.93;;;;;;;1.20;75.55;98089.72;4521746;31;20087;-77
2021/12/12 04:28:19;;;;;;;15.18;6.25;;;;;;;1.50;74.93;98136.16;4521206;31;20457;-76
2021/12/12 04:30:47;;;;;;;14.00;5.55;;;;;;;1.12;76.07;98110.06;4521522;31;20107;-76
2021/12/12 04:33:14;;;;;;;14.77;5.30;;;;;;;1.39;75.36;98120.97;4535841;31;20083;-76
2021/12/12 04:35:41;;;;;;;16.80;5.97;;;;;;;1.33;75.10;98126.91;4536031;31;20436;-76
2021/12/12 04:38:08;;;;;;;14.13;5.60;;;;;;;1.75;73.55;98125.00;4535724;31;20103;-76
2021/12/12 04:40:36;;;;;;;16.75;6.47;;;;;;;1.73;72.64;98134.34;4535464;31;20155;-76
2021/12/12 04:43:04;;;;;;;16.42;6.68;;;;;;;1.75;73.68;98135.16;4536011;31;20432;-76
2021/12/12 04:45:50;;;;;;;16.55;6.12;;;;;;;1.91;72.43;98143.53;4535943;31;20101;-76
2021/12/12 04:51:42;;;;;;;13.98;5.25;;;;;;;1.91;71.95;98144.38;4523848;31;20099;-76
2021/12/12 04:54:29;;;;;;;15.70;5.57;;;;;;;1.88;71.37;98130.84;4535936;31;20146;-76
2021/12/12 04:57:02;;;;;;;16.13;5.90;;;;;;;2.18;70.49;98133.16;4521534;31;20095;-76
2021/12/12 04:59:39;;;;;;;15.88;5.62;;;;;;;2.71;68.46;98147.13;4521146;31;20118;-76
2021/12/12 05:02:29;;;;;;;12.63;4.55;;;;;;;2.77;68.33;98141.13;4535643;31;20540;-76
2021/12/12 05:05:20;;;;;;;15.75;5.87;;;;;;;2.50;68.95;98160.88;4520694;31;20087;-76
2021/12/12 05:08:06;;;;;;;14.13;4.55;;;;;;;2.27;68.87;98158.53;4521361;31;20449;-76
2021/12/12 05:10:41;;;;;;;14.43;5.65;;;;;;;2.13;69.70;98149.34;4520978;31;20163;-76
2021/12/12 05:13:21;;;;;;;16.92;5.32;;;;;;;2.89;67.11;98138.44;4515629;31;182879;-75
2021/12/12 05:16:06;;;;;;;14.73;5.68;;;;;;;3.06;66.46;98145.88;4535323;31;20146;-76
2021/12/12 05:18:38;;;;;;;13.02;4.95;;;;;;;3.14;65.26;98134.75;4521346;31;20075;-76
2021/12/12 05:21:10;;;;;;;12.30;4.50;;;;;;;3.01;65.53;98145.97;4521409;31;20104;-76
2021/12/12 05:23:41;;;;;;;12.98;4.97;;;;;;;3.10;64.31;98145.00;4508011;31;20417;-76
2021/12/12 05:26:14;;;;;;;13.68;5.03;;;;;;;3.40;62.67;98152.31;4521355;31;20087;-75
2021/12/12 05:28:49;;;;;;;12.48;4.60;;;;;;;3.61;62.76;98150.31;4535464;31;20091;-76
2021/12/12 05:31:19;;;;;;;11.88;3.97;;;;;;;2.32;65.90;98133.87;4520874;31;20437;-76
2021/12/12 05:33:50;;;;;;;14.38;5.20;;;;;;;1.78;68.95;98137.69;4521312;31;20468;-76
2021/12/12 05:36:17;;;;;;;13.23;5.05;;;;;;;3.05;65.52;98152.69;4521307;31;20105;-76
2021/12/12 05:38:45;;;;;;;12.82;5.05;;;;;;;3.02;64.41;98137.44;4520658;31;20083;-76
2021/12/12 05:41:14;;;;;;;12.60;4.60;;;;;;;2.59;65.50;98092.03;4535637;31;20080;-76
2021/12/12 05:43:41;;;;;;;13.13;4.40;;;;;;;1.50;70.44;98126.00;4520946;31;20174;-76
2021/12/12 05:46:08;;;;;;;11.48;4.20;;;;;;;1.72;69.67;98130.94;4535520;31;20443;-76
2021/12/12 05:48:35;;;;;;;16.90;3.42;;;;;;;2.31;67.97;98142.38;4520936;31;20113;-76
2021/12/12 05:51:03;;;;;;;12.25;3.92;;;;;;;2.22;67.82;98147.53;4535147;31;20498;-77
2021/12/12 05:53:30;;;;;;;12.90;4.87;;;;;;;1.98;69.07;98148.56;4521201;31;20410;-76
2021/12/12 05:55:57;;;;;;;13.93;4.35;;;;;;;2.38;68.62;98152.53;4535390;31;20099;-76
2021/12/12 05:58:24;;;;;;;13.07;4.75;;;;;;;2.50;67.32;98137.97;4534956;31;20421;-76
2021/12/12 06:00:59;;;;;;;10.70;3.90;;;;;;;2.40;68.95;98169.47;4535492;31;20174;-76
2021/12/12 06:03:30;;;;;;;9.55;3.50;;;;;;;2.75;67.15;98160.66;4535486;31;20099;-76
2021/12/12 06:05:58;;;;;;;12.18;4.20;;;;;;;1.82;70.99;98148.69;4520764;31;20575;-76
2021/12/12 06:08:26;;;;;;;10.80;4.12;;;;;;;2.31;69.61;98175.47;4535290;31;20080;-76
2021/12/12 06:10:54;;;;;;;10.25;3.70;;;;;;;2.20;69.11;98167.06;4520980;31;20122;-75
2021/12/12 06:13:22;;;;;;;11.23;4.28;;;;;;;2.14;68.99;98172.22;4520673;31;20627;-76
2021/12/12 06:15:53;;;;;;;9.48;3.40;;;;;;;2.43;69.01;98177.06;4534891;31;20504;-76
2021/12/12 06:18:22;;;;;;;12.05;4.35;;;;;;;1.76;70.85;98191.97;4521092;31;20102;-76
2021/12/12 06:20:49;;;;;;;9.55;3.47;;;;;;;2.43;69.09;98197.44;4534933;31;20147;-76
2021/12/12 06:23:17;;;;;;;10.55;3.42;;;;;;;2.55;68.88;98183.75;4520882;31;20104;-76
2021/12/12 06:25:45;;;;;;;7.95;3.00;;;;;;;1.87;71.51;98205.47;4534884;31;20091;-76
2021/12/12 06:28:16;;;;;;;10.15;2.92;;;;;;;1.89;71.88;98219.88;4535126;31;20078;-75
2021/12/12 06:30:43;;;;;;;9.65;3.17;;;;;;;1.84;70.16;98210.59;4535155;31;20108;-76
2021/12/12 06:33:11;;;;;;;9.18;3.65;;;;;;;2.25;69.49;98256.16;4534934;31;20079;-76
2021/12/12 06:35:38;;;;;;;9.75;3.42;;;;;;;1.71;71.48;98225.06;4535156;31;20471;-76
2021/12/12 06:38:08;;;;;;;9.45;3.28;;;;;;;1.38;73.35;98267.59;4520638;31;20084;-76
2021/12/12 06:40:36;;;;;;;11.70;3.78;;;;;;;1.82;71.41;98265.72;4534596;31;20147;-76
2021/12/12 06:43:08;;;;;;;8.52;2.58;;;;;;;2.54;69.44;98292.44;4535120;31;20437;-76
2021/12/12 06:45:35;;;;;;;10.30;3.30;;;;;;;3.02;65.40;98284.44;4535085;31;20079;-76
2021/12/12 06:48:08;;;;;;;7.80;2.97;;;;;;;2.39;68.35;98276.44;4520265;31;20079;-76
2021/12/12 06:50:37;;;;;;;7.32;2.72;;;;;;;1.94;69.69;98291.13;4535002;31;20421;-76
2021/12/12 06:53:05;;;;;;;11.27;3.50;;;;;;;1.76;71.85;98302.19;4534947;31;20135;-76
2021/12/12 06:55:32;;;;;;;11.90;3.75;;;;;;;2.55;67.61;98306.91;4534625;31;20146;-76
2021/12/12 06:57:59;;;;;;;10.48;3.05;;;;;;;2.05;69.58;98303.78;4534863;31;20114;-76
2021/12/12 07:00:28;;;;;;;7.55;2.90;;;;;;;2.05;69.13;98327.53;4534802;31;20104;-76
2021/12/12 07:02:55;;;;;;;7.00;2.95;;;;;;;0.93;73.61;98318.47;4520237;31;20445;-76
2021/12/12 07:05:27;;;;;;;7.97;2.53;;;;;;;0.94;74.17;98327.78;4520595;31;20122;-76
2021/12/12 07:07:54;;;;;;;9.07;3.12;;;;;;;1.61;71.94;98341.25;4534507;31;20155;-76
2021/12/12 07:10:25;;;;;;;9.05;2.83;;;;;;;1.51;71.84;98343.84;4534737;31;20804;-76
2021/12/12 07:12:56;;;;;;;6.30;2.37;;;;;;;1.44;72.37;98363.31;4534831;31;20560;-76
2021/12/12 07:15:36;;;;;;;11.18;3.42;;;;;;;1.42;73.02;98357.41;4519902;31;20079;-76
2021/12/12 07:18:12;;;;;;;7.53;2.70;;;;;;;1.56;72.67;98358.22;4520308;31;20138;-76
2021/12/12 07:20:40;;;;;;;7.72;2.87;;;;;;;1.69;70.29;98357.31;4534540;31;20441;-76
2021/12/12 07:23:11;;;;;;;6.80;2.75;;;;;;;1.50;71.74;98347.22;4520010;31;20103;-77
2021/12/12 07:25:40;;;;;;;10.50;3.00;;;;;;;1.58;71.08;98348.88;4520444;31;20413;-76
2021/12/12 07:28:07;;;;;;;9.93;2.65;;;;;;;1.83;69.89;98348.84;4519379;31;20119;-76
2021/12/12 07:30:35;;;;;;;8.05;2.40;;;;;;;1.40;71.99;98356.56;4519704;31;20103;-76
2021/12/12 07:33:04;;;;;;;7.22;2.62;;;;;;;1.63;70.94;98352.28;4520183;31;20136;-76
2021/12/12 07:35:33;;;;;;;9.25;3.55;;;;;;;1.44;72.04;98346.37;4534415;31;20071;-76
2021/12/12 07:38:01;;;;;;;9.57;2.75;;;;;;;1.16;71.44;98322.66;4519637;31;20104;-75
2021/12/12 07:40:28;;;;;;;10.63;2.87;;;;;;;0.92;75.55;98344.72;4519899;31;20100;-76
2021/12/12 07:42:55;;;;;;;;;;;;;;;1.88;69.87;98347.94;4520075;31;20122;-76
2021/12/12 07:45:23;;;;;;;6.35;2.35;;;;;;;2.52;67.28;98317.09;4519999;31;19975;-77
2021/12/12 07:47:52;;;;;;;8.90;2.42;;;;;;;2.16;68.57;98327.50;4519957;31;20421;-76
2021/12/12 07:50:22;;;;;;;8.45;3.05;;;;;;;2.01;69.48;98325.84;4519525;31;20163;-76
2021/12/12 07:52:51;;;;;;;8.15;2.67;;;;;;;1.55;71.69;98327.69;4534310;31;20134;-76
2021/12/12 07:55:18;;;;;;;8.40;2.50;;;;;;;1.59;70.81;98339.56;4534377;31;20158;-76
2021/12/12 07:57:45;;;;;;;;;;;;;;;2.22;67.58;98345.25;4534055;31;20143;-76
2021/12/12 08:00:18;;;;;;;6.70;2.53;;;;;;;2.00;69.34;98349.59;4519593;31;19987;-75
2021/12/12 08:02:46;;;;;;;8.52;2.55;;;;;;;1.59;70.04;98350.56;4534129;31;20147;-75
2021/12/12 08:05:15;;;;;;;7.45;2.47;;;;;;;1.60;69.62;98336.19;4533672;31;20101;-76
2021/12/12 08:07:43;;;;;;;8.95;2.92;;;;;;;1.45;71.38;98345.53;4534064;31;20536;-75
2021/12/12 08:10:13;;;;;;;4.80;1.87;;;;;;;1.85;69.09;98326.78;4533790;31;20167;-75
2021/12/12 08:12:42;;;;;;;8.98;2.45;;;;;;;1.74;70.35;98342.91;4533748;31;20091;-76
2021/12/12 08:15:16;;;;;;;6.70;2.40;;;;;;;1.99;68.43;98358.94;4519882;31;20079;-76
2021/12/12 08:17:43;;;;;;;7.47;2.53;;;;;;;1.70;69.82;98340.37;4519323;31;20155;-76
2021/12/12 08:20:13;;;;;;;10.30;3.37;;;;;;;1.69;69.31;98310.69;4519270;31;20110;-75
2021/12/12 08:22:41;;;;;;;8.15;2.65;;;;;;;2.37;66.84;98324.84;4533746;31;20091;-76
2021/12/12 08:25:11;;;;;;;10.20;2.58;;;;;;;1.23;70.80;98312.50;4533280;31;20131;-76
2021/12/12 08:27:38;;;;;;;6.85;2.53;;;;;;;1.60;69.41;98314.13;4533640;31;20492;-76
2021/12/12 08:30:06;;;;;;;6.43;2.83;;;;;;;1.68;70.10;98340.37;4533464;31;20100;-75
2021/12/12 08:32:33;;;;;;;6.85;2.35;;;;;;;2.20;67.75;98345.28;4518874;31;20113;-76
2021/12/12 08:35:10;;;;;;;7.78;2.40;;;;;;;2.25;67.84;98358.00;4520066;31;20153;-76
2021/12/12 08:37:37;;;;;;;10.18;3.00;;;;;;;2.65;66.36;98342.47;4533470;31;20114;-76
2021/12/12 08:40:05;;;;;;;6.70;2.25;;;;;;;2.28;66.70;98363.06;4533139;31;20091;-76
2021/12/12 08:42:33;;;;;;;7.90;2.62;;;;;;;2.20;67.40;98352.91;4535990;31;20101;-75
2021/12/12 08:45:03;;;;;;;6.20;2.08;;;;;;;2.82;66.36;98373.81;4535953;31;20507;-76
2021/12/12 08:47:33;;;;;;;7.70;2.97;;;;;;;2.93;65.31;98372.03;4521150;31;20083;-76
2021/12/12 08:50:03;;;;;;;8.00;2.72;;;;;;;3.55;62.84;98367.25;4521427;31;20167;-76
2021/12/12 08:52:36;;;;;;;7.03;2.65;;;;;;;3.46;63.22;98365.62;4521525;31;20189;-75
2021/12/12 08:55:08;;;;;;;8.25;2.95;;;;;;;3.42;61.92;98361.44;4535789;31;20110;-76
2021/12/12 08:57:39;;;;;;;8.45;2.70;;;;;;;4.52;59.51;98375.50;4521571;31;20146;-75
2021/12/12 09:00:31;;;;;;;8.20;2.83;;;;;;;3.87;60.58;98360.13;4523899;31;20460;-75
2021/12/12 09:02:59;;;;;;;8.23;3.10;;;;;;;3.18;62.45;98344.63;4535935;31;20461;-75
2021/12/12 09:05:30;;;;;;;7.30;2.62;;;;;;;3.78;60.90;98381.47;4508331;31;20087;-75
2021/12/12 09:08:18;;;;;;;8.82;3.25;;;;;;;4.68;59.19;98379.56;4535535;31;20119;-75
2021/12/12 09:11:05;;;;;;;7.93;2.72;;;;;;;4.86;56.54;98381.81;4521364;31;20171;-76
2021/12/12 09:13:44;;;;;;;10.93;2.97;;;;;;;4.63;58.06;98371.09;4535920;31;20103;-76
2021/12/12 09:16:22;;;;;;;8.65;3.03;;;;;;;5.22;55.88;98379.59;4520800;31;20479;-76
2021/12/12 09:19:02;;;;;;;7.30;2.80;;;;;;;5.06;55.84;98355.13;4521238;31;20091;-76
2021/12/12 09:21:58;;;;;;;5.82;2.17;;;;;;;5.54;54.29;98373.94;4535253;31;20471;-76
2021/12/12 09:24:49;;;;;;;6.62;2.62;;;;;;;5.32;54.04;98370.91;4535752;31;20104;-75
2021/12/12 09:27:25;;;;;;;8.93;3.08;;;;;;;4.70;56.81;98353.97;4521471;31;20181;-75
2021/12/12 09:30:02;;;;;;;6.47;2.73;;;;;;;5.37;54.01;98353.75;4520726;31;20087;-76
2021/12/12 09:32:33;;;;;;;9.77;2.80;;;;;;;4.69;56.79;98360.78;4521326;31;20107;-76
2021/12/12 09:35:10;;;;;;;9.27;3.03;;;;;;;4.59;56.12;98354.97;4535415;31;20161;-76
2021/12/12 09:37:36;;;;;;;7.55;2.72;;;;;;;6.15;52.70;98360.00;4535627;31;20162;-76
2021/12/12 09:40:22;;;;;;;;;;;;;;;5.84;52.25;98359.72;4521270;31;20481;-76
2021/12/12 09:43:00;;;;;;;7.00;2.45;;;;;;;6.74;49.25;98355.34;4520800;31;20019;-76
2021/12/12 09:45:47;;;;;;;8.93;2.80;;;;;;;6.04;52.13;98349.13;4521150;31;20110;-77
2021/12/12 09:51:46;;;;;;;8.32;2.78;;;;;;;4.47;57.26;98347.47;4534741;31;20180;-77
2021/12/12 09:54:25;;;;;;;6.57;2.50;;;;;;;4.55;56.71;98327.75;4535495;31;20109;-76
2021/12/12 09:57:05;;;;;;;8.35;3.17;;;;;;;5.17;54.99;98358.34;4535239;31;20087;-76
2021/12/12 09:59:44;;;;;;;8.73;3.00;;;;;;;4.73;56.62;98341.13;4521020;31;20101;-76
2021/12/12 10:02:20;;;;;;;7.82;2.70;;;;;;;4.93;57.55;98367.25;4535286;31;20375;-76
2021/12/12 10:05:09;;;;;;;8.43;3.15;;;;;;;5.06;56.01;98353.41;4535186;31;20220;-76
2021/12/12 10:07:50;;;;;;;7.37;2.72;;;;;;;5.90;53.54;98351.97;4535501;31;20131;-76
2021/12/12 10:10:30;;;;;;;6.55;2.25;;;;;;;4.50;56.26;98337.19;4534899;31;20166;-76
2021/12/12 10:13:14;;;;;;;8.82;2.97;;;;;;;3.52;60.26;98346.91;4535387;31;20079;-76
2021/12/12 10:15:44;;;;;;;9.93;3.08;;;;;;;3.55;60.96;98347.69;4520673;31;20167;-76
2021/12/12 10:18:21;;;;;;;8.68;2.97;;;;;;;3.67;61.37;98349.28;4534936;31;20095;-76
2021/12/12 10:20:48;;;;;;;;;;;;;;;4.52;57.21;98337.19;4521012;31;20101;-77
2021/12/12 10:23:15;;;;;;;7.03;2.78;;;;;;;3.97;60.42;98348.09;4535395;31;19971;-76
2021/12/12 10:25:45;;;;;;;7.95;2.60;;;;;;;3.95;58.88;98344.72;4534910;31;20444;-77
2021/12/12 10:28:18;;;;;;;10.85;3.12;;;;;;;2.74;63.85;98329.69;4535128;31;20100;-76
2021/12/12 10:31:06;;;;;;;7.62;3.03;;;;;;;4.00;60.99;98345.50;4520793;31;20102;-76
2021/12/12 10:33:44;;;;;;;8.68;2.87;;;;;;;4.16;59.22;98343.62;4520930;31;20548;-76
2021/12/12 10:36:17;;;;;;;6.00;2.20;;;;;;;4.68;58.39;98342.91;4535152;31;20095;-77
2021/12/12 10:38:58;;;;;;;7.10;2.80;;;;;;;4.85;57.38;98348.63;4520185;31;20115;-76
2021/12/12 10:41:40;;;;;;;12.37;3.08;;;;;;;4.58;58.76;98340.50;4534976;31;20097;-77
2021/12/12 10:44:14;;;;;;;6.97;2.95;;;;;;;4.05;59.36;98324.16;4520819;31;20189;-76
2021/12/12 10:46:50;;;;;;;8.40;2.62;;;;;;;4.96;57.70;98343.34;4535306;31;20091;-77
2021/12/12 10:49:22;;;;;;;14.57;3.40;;;;;;;4.83;57.35;98340.97;4521089;31;20099;-77
2021/12/12 10:52:02;;;;;;;8.15;3.10;;;;;;;4.50;58.72;98336.34;4535287;31;20083;-77
2021/12/12 10:54:38;;;;;;;7.80;2.78;;;;;;;4.38;58.65;98346.75;4534925;31;20092;-77
2021/12/12 10:57:10;;;;;;;12.95;3.05;;;;;;;4.12;59.04;98340.25;4520772;31;20106;-77
2021/12/12 10:59:49;;;;;;;9.30;2.90;;;;;;;4.09;60.68;98326.69;4520197;31;20103;-77
2021/12/12 11:02:19;;;;;;;8.80;3.90;;;;;;;4.48;59.56;98322.75;4520308;31;20154;-77
2021/12/12 11:04:51;;;;;;;9.82;3.42;;;;;;;3.93;60.32;98305.56;4519829;31;20154;-77
2021/12/12 11:07:29;;;;;;;9.35;3.25;;;;;;;4.04;60.37;98309.72;4520303;31;20154;-77
2021/12/12 11:10:02;;;;;;;8.13;3.03;;;;;;;3.65;61.55;98313.56;4534811;31;20158;-77
2021/12/12 11:12:41;;;;;;;12.68;3.00;;;;;;;3.53;62.17;98302.66;4534858;31;20513;-77
2021/12/12 11:15:24;;;;;;;9.07;3.08;;;;;;;3.71;62.54;98321.12;4520031;31;20151;-78
2021/12/12 11:18:06;;;;;;;9.25;3.42;;;;;;;3.98;60.22;98294.47;4520285;31;20095;-76
2021/12/12 11:20:36;;;;;;;8.65;2.47;;;;;;;3.88;61.62;98297.16;4519927;31;20102;-77
2021/12/12 11:23:13;;;;;;;8.77;3.15;;;;;;;4.21;61.48;98289.06;4520315;31;20432;-77
2021/12/12 11:25:46;;;;;;;8.68;3.25;;;;;;;3.97;61.05;98303.00;4534686;31;20421;-77
2021/12/12 11:28:20;;;;;;;7.93;2.80;;;;;;;4.00;61.25;98322.53;4534188;31;20121;-76
2021/12/12 11:30:53;;;;;;;8.30;2.67;;;;;;;4.52;59.35;98307.34;4534607;31;20150;-77
2021/12/12 11:33:21;;;;;;;8.93;3.08;;;;;;;4.05;61.25;98313.97;4520255;31;20118;-77
2021/12/12 11:35:51;;;;;;;7.12;2.95;;;;;;;3.58;62.25;98306.84;4534214;31;20087;-77
2021/12/12 11:38:39;;;;;;;10.90;3.65;;;;;;;3.32;64.32;98294.37;4534583;31;20169;-77
2021/12/12 11:41:16;;;;;;;8.18;3.42;;;;;;;3.99;62.24;98318.28;4534324;31;20731;-77
2021/12/12 11:44:08;;;;;;;7.07;2.85;;;;;;;3.76;61.80;98306.63;4520145;31;20079;-77
2021/12/12 11:47:00;;;;;;;5.95;2.78;;;;;;;4.11;60.56;98297.69;4521555;31;20076;-77
2021/12/12 11:49:35;;;;;;;7.15;3.05;;;;;;;4.09;60.58;98267.94;4519539;31;20100;-76
2021/12/12 11:52:08;;;;;;;8.13;3.05;;;;;;;4.27;60.43;98265.16;4534278;31;20145;-77
2021/12/12 11:55:01;;;;;;;6.60;2.67;;;;;;;4.27;60.72;98270.25;4519844;31;20087;-76
2021/12/12 11:57:33;;;;;;;6.60;2.70;;;;;;;3.96;61.90;98275.78;4506409;31;20123;-76
2021/12/12 12:00:14;;;;;;;9.23;3.40;;;;;;;4.81;59.05;98278.81;4519861;31;20191;-76
2021/12/12 12:03:04;;;;;;;8.18;2.97;;;;;;;4.54;57.71;98281.78;4519884;31;20166;-77
2021/12/12 12:05:51;;;;;;;7.97;3.25;;;;;;;4.78;59.33;98280.53;4534202;31;20083;-77
2021/12/12 12:08:43;;;;;;;8.77;3.40;;;;;;;5.16;57.49;98285.87;4519495;31;20155;-76
2021/12/12 12:11:39;;;;;;;9.82;3.03;;;;;;;4.65;59.43;98293.53;4533711;31;20196;-76
2021/12/12 12:14:37;;;;;;;7.70;2.65;;;;;;;4.37;60.66;98288.84;4520402;31;20170;-77
2021/12/12 12:17:08;;;;;;;9.40;3.50;;;;;;;4.03;60.96;98281.62;4534661;31;20146;-77
2021/12/12 12:19:54;;;;;;;6.60;2.67;;;;;;;4.44;60.86;98298.09;4521492;31;20158;-76
2021/12/12 12:22:42;;;;;;;8.45;2.90;;;;;;;4.50;60.10;98295.47;4536052;31;20088;-76